Time;durP1;ratioP1;P1;durP2;ratioP2;P2;SDS_P1;SDS_P2;PMS_P1;PMS_P2;Temp;Humidity;BMP_temperature;BMP_pressure;BME280_temperature;BME280_humidity;BME280_pressure;Samples;Min_cycle;Max_cycle;Signal;HPM_P1;HPM_P2
2023/03/18 00:01:53;;;;;;;16.40;12.00;;;;;;;10.30;57.56;95787.19;5029358;28;20690;-71
2023/03/18 00:04:19;;;;;;;18.53;10.67;;;;;;;10.34;57.30;95796.59;5028743;28;20500;-70
2023/03/18 00:06:45;;;;;;;18.23;10.57;;;;;;;10.35;57.48;95796.53;5028928;28;20226;-68
2023/03/18 00:09:12;;;;;;;121.30;15.50;;;;;;;10.40;57.51;95798.91;5029075;28;20422;-69
2023/03/18 00:11:38;;;;;;;15.50;10.90;;;;;;;10.40;57.29;95800.69;5028881;28;20262;-68
2023/03/18 00:14:04;;;;;;;21.53;11.60;;;;;;;10.34;57.47;95800.06;5028799;28;20506;-70
2023/03/18 00:16:29;;;;;;;14.37;10.80;;;;;;;10.24;57.50;95793.56;5028625;28;20226;-70
2023/03/18 00:18:55;;;;;;;13.20;11.00;;;;;;;10.30;57.81;95800.28;5028823;28;20419;-67
2023/03/18 00:21:22;;;;;;;11.70;10.00;;;;;;;10.28;57.65;95805.63;5028883;28;20174;-69
2023/03/18 00:23:48;;;;;;;12.70;9.80;;;;;;;10.31;57.35;95807.25;5028744;28;20187;-69
2023/03/18 00:26:14;;;;;;;16.77;11.20;;;;;;;10.35;57.29;95812.25;5028131;28;20444;-68
2023/03/18 00:28:40;;;;;;;14.83;9.40;;;;;;;10.25;57.17;95808.41;5028936;28;20414;-69
2023/03/18 00:31:08;;;;;;;11.97;10.20;;;;;;;10.16;58.28;95808.88;5028690;28;20414;-68
2023/03/18 00:33:39;;;;;;;16.27;9.17;;;;;;;10.19;57.78;95811.31;5028477;28;20187;-69
2023/03/18 00:36:08;;;;;;;15.60;10.67;;;;;;;10.11;58.04;95816.97;5028202;28;20462;-69
2023/03/18 00:38:35;;;;;;;15.10;9.53;;;;;;;10.05;58.48;95814.66;5028778;28;20418;-70
2023/03/18 00:41:03;;;;;;;14.33;9.30;;;;;;;10.23;57.71;95817.25;5028736;28;21119;-68
2023/03/18 00:43:34;;;;;;;11.83;8.20;;;;;;;10.17;57.71;95814.00;5028767;28;20513;-68
2023/03/18 00:46:01;;;;;;;11.20;8.93;;;;;;;10.05;58.25;95814.66;5028666;28;20967;-68
2023/03/18 00:48:26;;;;;;;13.33;9.80;;;;;;;10.21;57.40;95809.47;5028907;28;20505;-69
2023/03/18 00:50:52;;;;;;;15.33;9.40;;;;;;;10.27;57.73;95817.00;5029099;28;20509;-69
2023/03/18 00:53:18;;;;;;;16.07;10.47;;;;;;;10.25;57.47;95811.03;5028831;28;20177;-69
2023/03/18 00:55:44;;;;;;;11.57;9.07;;;;;;;10.14;57.58;95816.81;5028342;28;20474;-70
2023/03/18 00:58:11;;;;;;;11.20;10.00;;;;;;;10.22;57.67;95816.41;5028401;28;20637;-70
2023/03/18 01:00:38;;;;;;;15.13;9.33;;;;;;;10.19;57.42;95824.44;5028502;28;20674;-68
2023/03/18 01:03:05;;;;;;;15.63;9.47;;;;;;;9.96;58.10;95820.38;5028219;28;20509;-69
2023/03/18 01:05:31;;;;;;;13.20;10.20;;;;;;;10.12;57.56;95823.06;5027952;28;20434;-68
2023/03/18 01:07:57;;;;;;;11.83;9.20;;;;;;;10.17;57.21;95821.88;5027809;28;20502;-68
2023/03/18 01:10:23;;;;;;;15.03;8.77;;;;;;;10.16;57.36;95827.22;5027998;28;20493;-68
2023/03/18 01:12:49;;;;;;;10.80;8.10;;;;;;;9.92;57.93;95822.31;5027908;28;20178;-70
2023/03/18 01:15:18;;;;;;;12.37;8.90;;;;;;;9.99;57.68;95821.97;5027549;28;21077;-69
2023/03/18 01:17:45;;;;;;;14.07;8.70;;;;;;;9.91;58.25;95822.38;5027705;28;20414;-70
2023/03/18 01:20:13;;;;;;;14.80;8.63;;;;;;;10.08;58.01;95821.50;5027965;28;20449;-69
2023/03/18 01:22:42;;;;;;;12.07;9.03;;;;;;;10.12;57.93;95818.66;5027500;28;20852;-70
2023/03/18 01:25:09;;;;;;;22.30;10.50;;;;;;;10.13;57.97;95820.38;5026490;28;20438;-69
2023/03/18 01:27:35;;;;;;;10.47;9.17;;;;;;;10.11;57.76;95816.09;5027682;28;20414;-71
2023/03/18 01:30:02;;;;;;;13.97;9.17;;;;;;;10.04;57.98;95819.97;5027636;28;20477;-70
2023/03/18 01:32:27;;;;;;;16.53;10.30;;;;;;;10.04;57.61;95817.34;5027668;28;20418;-70
2023/03/18 01:34:53;;;;;;;12.23;9.73;;;;;;;10.01;57.81;95809.66;5027252;28;20564;-69
2023/03/18 01:37:18;;;;;;;11.97;10.03;;;;;;;9.96;58.45;95821.19;5027205;28;20172;-68
2023/03/18 01:39:44;;;;;;;14.70;10.07;;;;;;;9.88;58.85;95812.91;5027401;28;20191;-71
2023/03/18 01:42:10;;;;;;;12.93;10.53;;;;;;;9.84;59.07;95808.72;5027329;28;20179;-69
2023/03/18 01:44:36;;;;;;;12.23;10.63;;;;;;;9.70;59.01;95814.66;5026941;28;20551;-68
2023/03/18 01:47:02;;;;;;;13.63;10.40;;;;;;;9.68;59.15;95810.41;5026162;28;20419;-68
2023/03/18 01:49:42;;;;;;;13.80;10.67;;;;;;;9.61;59.31;95814.25;5026418;28;20925;-70
2023/03/18 01:52:14;;;;;;;12.47;10.40;;;;;;;9.59;59.45;95814.38;5026399;28;20866;-69
2023/03/18 01:55:02;;;;;;;12.93;9.87;;;;;;;9.26;60.60;95808.97;5026290;28;20565;-69
2023/03/18 01:57:29;;;;;;;18.73;11.80;;;;;;;9.50;59.82;95813.03;5025506;28;20861;-69
2023/03/18 01:59:56;;;;;;;13.43;10.63;;;;;;;9.55;60.42;95815.44;5026174;28;20414;-69
2023/03/18 02:02:22;;;;;;;13.23;10.47;;;;;;;9.65;59.36;95815.81;5026297;28;20416;-69
2023/03/18 02:04:50;;;;;;;11.77;10.50;;;;;;;9.73;59.01;95808.41;5026233;28;20434;-69
2023/03/18 02:07:24;;;;;;;18.97;10.53;;;;;;;9.72;59.64;95812.81;5025921;28;20895;-68
2023/03/18 02:09:51;;;;;;;17.83;10.90;;;;;;;9.60;59.36;95815.19;5026273;28;20402;-69
2023/03/18 02:12:23;;;;;;;14.20;10.30;;;;;;;9.74;59.37;95803.09;5026107;28;21032;-69
2023/03/18 02:14:50;;;;;;;12.53;10.23;;;;;;;9.54;59.50;95809.34;5025823;28;20527;-69
2023/03/18 02:17:22;;;;;;;20.27;10.13;;;;;;;9.58;59.21;95812.66;5025567;28;20406;-69
2023/03/18 02:19:47;;;;;;;14.00;9.27;;;;;;;9.69;58.85;95806.88;5025831;28;20409;-70
2023/03/18 02:22:27;;;;;;;13.40;9.53;;;;;;;9.61;59.43;95814.25;5025729;28;20907;-70
2023/03/18 02:25:10;;;;;;;15.83;9.10;;;;;;;9.64;59.46;95814.13;5025629;28;20191;-69
2023/03/18 02:27:43;;;;;;;12.77;10.17;;;;;;;9.56;59.45;95814.50;5025531;28;20424;-69
2023/03/18 02:30:15;;;;;;;18.40;9.43;;;;;;;9.63;58.64;95812.41;5025808;28;20417;-69
2023/03/18 02:32:42;;;;;;;13.27;9.50;;;;;;;9.52;59.62;95813.81;5025313;28;20410;-70
2023/03/18 02:35:10;;;;;;;12.73;9.57;;;;;;;9.47;58.93;95810.56;5025082;28;20472;-68
2023/03/18 02:37:36;;;;;;;11.83;8.70;;;;;;;9.56;58.80;95817.09;5025523;28;20410;-69
2023/03/18 02:40:36;;;;;;;14.03;8.57;;;;;;;9.54;59.49;95819.81;5025597;28;20422;-68
2023/03/18 02:43:23;;;;;;;9.10;8.03;;;;;;;9.54;58.80;95818.94;5013249;28;20240;-69
2023/03/18 02:46:10;;;;;;;11.83;8.43;;;;;;;9.47;59.05;95828.03;4984946;28;1165551;-69
2023/03/18 02:48:44;;;;;;;13.83;9.80;;;;;;;9.51;59.42;95821.72;5026384;28;20187;-70
2023/03/18 02:51:11;;;;;;;12.27;8.87;;;;;;;9.48;58.97;95822.72;5026391;28;20776;-69
2023/03/18 02:53:37;;;;;;;11.80;9.63;;;;;;;9.47;59.20;95823.66;5026577;28;20480;-69
2023/03/18 02:56:04;;;;;;;12.80;8.83;;;;;;;9.48;59.02;95827.13;5025920;28;20465;-68
2023/03/18 02:58:30;;;;;;;11.77;9.57;;;;;;;9.42;60.00;95824.78;5026407;28;20640;-69
2023/03/18 03:00:56;;;;;;;10.90;9.17;;;;;;;9.49;59.34;95829.66;5026422;28;20406;-70
2023/03/18 03:03:22;;;;;;;11.37;9.60;;;;;;;9.42;59.98;95843.13;5024620;28;20179;-69
2023/03/18 03:05:47;;;;;;;11.03;9.60;;;;;;;9.41;59.68;95837.06;5026247;28;21023;-70
2023/03/18 03:08:14;;;;;;;13.23;9.10;;;;;;;9.35;59.78;95839.94;5026033;28;20421;-70
2023/03/18 03:10:39;;;;;;;12.07;10.00;;;;;;;9.20;60.74;95845.94;5024585;28;20182;-69
2023/03/18 03:13:06;;;;;;;15.37;10.27;;;;;;;9.30;60.21;95847.19;5026272;28;20414;-69
2023/03/18 03:15:32;;;;;;;13.50;9.33;;;;;;;9.18;61.16;95853.84;5025915;28;20302;-69
2023/03/18 03:17:57;;;;;;;15.70;9.07;;;;;;;9.21;60.27;95847.63;5025985;28;20858;-69
2023/03/18 03:20:23;;;;;;;12.40;9.37;;;;;;;9.23;59.73;95851.00;5026260;28;20267;-70
2023/03/18 03:22:49;;;;;;;14.60;8.60;;;;;;;9.14;60.91;95848.81;5026191;28;20214;-70
2023/03/18 03:25:14;;;;;;;10.70;9.07;;;;;;;9.26;60.57;95856.09;5025997;28;20195;-70
2023/03/18 03:27:40;;;;;;;13.50;9.30;;;;;;;9.32;59.96;95853.19;5025825;28;20182;-69
2023/03/18 03:30:09;;;;;;;10.90;7.50;;;;;;;9.30;60.30;95857.66;5026152;28;20274;-69
2023/03/18 03:32:35;;;;;;;11.83;9.07;;;;;;;9.30;59.96;95860.28;5026008;28;20442;-67
2023/03/18 03:35:00;;;;;;;16.23;10.10;;;;;;;9.31;59.27;95862.00;5026021;28;20465;-70
2023/03/18 03:37:26;;;;;;;9.23;7.40;;;;;;;9.21;60.11;95863.31;5025855;28;20214;-70
2023/03/18 03:39:52;;;;;;;10.50;8.40;;;;;;;9.23;60.33;95864.94;5025958;28;20175;-70
2023/03/18 03:42:17;;;;;;;11.50;8.50;;;;;;;9.20;60.29;95874.72;5025899;28;20959;-70
2023/03/18 03:44:43;;;;;;;10.70;8.37;;;;;;;9.24;59.56;95871.06;5026568;28;20214;-68
2023/03/18 03:47:09;;;;;;;20.30;10.03;;;;;;;9.30;59.30;95874.22;5029581;28;20183;-69
2023/03/18 03:49:34;;;;;;;10.37;8.70;;;;;;;9.24;59.54;95873.69;5029314;28;20191;-69
2023/03/18 03:52:00;;;;;;;15.23;8.90;;;;;;;9.11;59.77;95874.22;5029342;28;20167;-69
2023/03/18 03:54:26;;;;;;;9.80;7.83;;;;;;;9.05;60.15;95869.28;5029501;28;20238;-69
2023/03/18 03:56:52;;;;;;;13.10;8.20;;;;;;;9.25;59.85;95870.13;5029038;28;20257;-69
2023/03/18 03:59:17;;;;;;;10.60;8.13;;;;;;;9.10;60.76;95869.91;5029304;28;20591;-68
2023/03/18 04:01:43;;;;;;;12.10;9.60;;;;;;;9.13;59.86;95870.69;5029197;28;20414;-69
2023/03/18 04:04:09;;;;;;;9.57;8.53;;;;;;;9.16;60.06;95875.78;5029078;28;20203;-68
2023/03/18 04:06:35;;;;;;;15.70;9.30;;;;;;;9.27;59.44;95876.13;5028998;28;20277;-71
2023/03/18 04:09:02;;;;;;;10.70;8.87;;;;;;;8.97;60.72;95881.03;5029113;28;20179;-68
2023/03/18 04:11:28;;;;;;;12.37;8.97;;;;;;;8.87;61.13;95880.59;5029037;28;20859;-69
2023/03/18 04:13:54;;;;;;;12.70;9.60;;;;;;;9.00;60.64;95893.97;5029088;28;20524;-70
2023/03/18 04:16:19;;;;;;;15.80;8.83;;;;;;;8.89;60.60;95897.09;5028523;28;20946;-69
2023/03/18 04:18:45;;;;;;;11.60;8.60;;;;;;;8.92;60.55;95889.09;5030326;28;20171;-70
2023/03/18 04:21:11;;;;;;;9.60;7.93;;;;;;;8.91;60.46;95890.00;5028880;28;20171;-68
2023/03/18 04:23:36;;;;;;;14.43;10.50;;;;;;;8.82;61.52;95899.13;5028933;28;20414;-69
2023/03/18 04:26:04;;;;;;;11.13;8.50;;;;;;;8.82;60.75;95896.50;5028411;28;20285;-69
2023/03/18 04:28:30;;;;;;;13.93;9.30;;;;;;;8.95;61.21;95893.31;5028752;28;20190;-69
2023/03/18 04:30:56;;;;;;;16.40;10.53;;;;;;;8.91;60.66;95892.63;5027229;28;20484;-68
2023/03/18 04:33:21;;;;;;;9.60;8.57;;;;;;;9.08;59.55;95892.69;5028468;28;20784;-69
2023/03/18 04:35:47;;;;;;;10.10;8.70;;;;;;;9.11;60.48;95886.47;5028261;28;20269;-70
2023/03/18 04:38:13;;;;;;;8.37;7.17;;;;;;;8.99;60.05;95887.88;5028331;28;20179;-70
2023/03/18 04:40:38;;;;;;;13.67;8.93;;;;;;;8.80;60.42;95889.66;5028410;28;20230;-69
2023/03/18 04:43:03;;;;;;;12.30;8.77;;;;;;;8.84;60.36;95894.66;5028336;28;20298;-69
2023/03/18 04:45:29;;;;;;;12.63;7.80;;;;;;;8.83;60.98;95890.34;5028291;28;20203;-69
2023/03/18 04:47:54;;;;;;;11.00;9.00;;;;;;;8.78;61.01;95887.09;5028140;28;20180;-69
2023/03/18 04:50:20;;;;;;;9.77;8.23;;;;;;;8.73;61.24;95886.44;5028240;28;20680;-69
2023/03/18 04:52:46;;;;;;;8.90;7.93;;;;;;;8.59;62.07;95899.28;5028006;28;20675;-69
2023/03/18 04:55:15;;;;;;;10.57;7.10;;;;;;;8.29;62.57;95889.22;5027846;28;20223;-70
2023/03/18 04:57:41;;;;;;;11.30;8.20;;;;;;;8.15;63.07;95886.34;5026974;28;20243;-69
2023/03/18 05:00:11;;;;;;;10.20;8.40;;;;;;;8.32;62.90;95899.56;5028002;28;20434;-70
2023/03/18 05:02:38;;;;;;;11.30;7.80;;;;;;;8.40;63.02;95891.41;5031819;28;20696;-69
2023/03/18 05:05:04;;;;;;;12.90;8.70;;;;;;;8.50;61.87;95895.31;5028404;28;21052;-69
2023/03/18 05:07:30;;;;;;;19.90;8.50;;;;;;;8.69;61.17;95896.22;5027751;28;20517;-69
2023/03/18 05:09:56;;;;;;;9.80;8.80;;;;;;;8.60;61.99;95883.53;5027695;28;20465;-70
2023/03/18 05:12:22;;;;;;;23.00;8.83;;;;;;;8.63;61.97;95878.16;5027802;28;20410;-71
2023/03/18 05:14:48;;;;;;;11.47;8.30;;;;;;;8.61;61.95;95885.22;5027556;28;20239;-70
2023/03/18 05:17:16;;;;;;;14.50;9.17;;;;;;;8.68;62.07;95889.28;5027564;28;20183;-69
2023/03/18 05:19:47;;;;;;;10.67;8.67;;;;;;;8.55;61.81;95890.75;5027508;28;20182;-70
2023/03/18 05:22:14;;;;;;;12.00;8.00;;;;;;;8.51;61.79;95891.78;5027710;28;20417;-71
2023/03/18 05:24:42;;;;;;;9.33;8.03;;;;;;;8.10;63.38;95893.53;5027461;28;20438;-70
2023/03/18 05:27:09;;;;;;;14.00;8.07;;;;;;;8.35;62.67;95903.78;5025629;28;20426;-69
2023/03/18 05:29:37;;;;;;;12.10;7.93;;;;;;;8.42;62.81;95894.81;5027413;28;20410;-69
2023/03/18 05:32:05;;;;;;;17.67;7.63;;;;;;;8.12;62.78;95889.94;5027114;28;20762;-71
2023/03/18 05:34:36;;;;;;;11.50;7.77;;;;;;;8.45;62.30;95897.28;5026986;28;20445;-70
2023/03/18 05:37:03;;;;;;;11.90;7.30;;;;;;;8.47;62.76;95903.28;5027140;28;20417;-70
2023/03/18 05:39:30;;;;;;;24.47;8.67;;;;;;;8.69;61.88;95895.34;5027238;28;20422;-71
2023/03/18 05:41:56;;;;;;;16.80;9.07;;;;;;;8.72;61.12;95899.59;5027197;28;20433;-70
2023/03/18 05:44:22;;;;;;;13.77;8.50;;;;;;;8.63;61.09;95886.00;5027112;28;20423;-70
2023/03/18 05:46:47;;;;;;;16.83;9.10;;;;;;;8.61;61.63;95906.16;5026983;28;20411;-70
2023/03/18 05:49:13;;;;;;;14.93;8.80;;;;;;;8.61;61.46;95906.16;5027703;28;20908;-70
2023/03/18 05:51:38;;;;;;;8.50;6.50;;;;;;;8.65;61.70;95891.19;5027129;28;20176;-70
2023/03/18 05:54:04;;;;;;;9.00;6.17;;;;;;;8.48;61.80;95897.16;5027042;28;20967;-70
2023/03/18 05:56:30;;;;;;;10.20;7.23;;;;;;;8.66;60.87;95891.09;5026891;28;20211;-69
2023/03/18 05:58:56;;;;;;;13.47;7.30;;;;;;;8.78;61.00;95894.09;5026908;28;20229;-69
2023/03/18 06:01:23;;;;;;;9.00;6.90;;;;;;;8.81;60.73;95897.44;5026847;28;20265;-70
2023/03/18 06:03:49;;;;;;;40.07;9.10;;;;;;;8.70;60.98;95902.28;5026829;28;20879;-70
2023/03/18 06:06:14;;;;;;;26.77;8.20;;;;;;;8.74;61.42;95896.00;5024820;28;20593;-69
2023/03/18 06:08:40;;;;;;;10.67;6.77;;;;;;;8.82;60.42;95900.88;5027051;28;20225;-69
2023/03/18 06:11:06;;;;;;;15.53;6.73;;;;;;;8.95;60.12;95902.00;5027052;28;20207;-69
2023/03/18 06:13:32;;;;;;;8.80;6.53;;;;;;;8.87;60.01;95901.53;5026584;28;20188;-69
2023/03/18 06:15:59;;;;;;;9.60;6.37;;;;;;;8.97;59.47;95909.81;5026342;28;20461;-70
2023/03/18 06:18:25;;;;;;;10.80;6.47;;;;;;;9.15;58.91;95906.34;5026728;28;20187;-69
2023/03/18 06:20:51;;;;;;;25.40;6.80;;;;;;;9.09;58.50;95899.66;5026970;28;20907;-70
2023/03/18 06:23:17;;;;;;;29.93;9.70;;;;;;;9.22;58.64;95906.94;5026688;28;20456;-70
2023/03/18 06:25:42;;;;;;;30.43;9.67;;;;;;;9.37;58.24;95905.34;5026348;28;20200;-69
2023/03/18 06:28:08;;;;;;;25.93;7.37;;;;;;;9.25;57.69;95897.16;5026554;28;20430;-69
2023/03/18 06:30:33;;;;;;;13.60;7.10;;;;;;;9.35;57.21;95902.78;5026765;28;20207;-70
2023/03/18 06:32:59;;;;;;;8.47;6.47;;;;;;;9.59;57.01;95899.94;5026509;28;20258;-69
2023/03/18 06:35:26;;;;;;;75.93;10.40;;;;;;;9.56;56.67;95898.31;5026839;28;20302;-70
2023/03/18 06:37:53;;;;;;;12.87;6.40;;;;;;;9.90;55.54;95894.06;5026183;28;20274;-72
2023/03/18 06:40:19;;;;;;;28.53;7.53;;;;;;;10.14;54.51;95890.22;5026650;28;20516;-70
2023/03/18 06:42:45;;;;;;;12.40;6.03;;;;;;;10.28;53.77;95892.19;5026544;28;20442;-70
2023/03/18 06:45:11;;;;;;;11.73;8.13;;;;;;;10.32;53.43;95892.84;5026355;28;20940;-70
2023/03/18 06:47:38;;;;;;;10.23;6.10;;;;;;;10.57;53.09;95906.41;5026241;28;20866;-70
2023/03/18 06:50:04;;;;;;;9.07;6.40;;;;;;;10.94;51.60;95898.41;5026365;28;21179;-70
2023/03/18 06:52:30;;;;;;;10.60;5.50;;;;;;;11.20;51.06;95895.22;5026276;28;20505;-68
2023/03/18 06:54:56;;;;;;;7.93;5.47;;;;;;;11.36;50.21;95894.34;5026266;28;20207;-70
2023/03/18 06:57:21;;;;;;;7.17;6.40;;;;;;;11.39;50.75;95905.56;5026190;28;20418;-68
2023/03/18 06:59:47;;;;;;;10.97;5.50;;;;;;;11.37;50.56;95904.78;5026423;28;20668;-69
2023/03/18 07:02:14;;;;;;;6.67;6.03;;;;;;;11.26;50.81;95906.31;5026341;28;20180;-69
2023/03/18 07:04:39;;;;;;;13.43;5.90;;;;;;;11.50;50.69;95910.19;5026127;28;20206;-69
2023/03/18 07:07:06;;;;;;;9.30;6.20;;;;;;;11.84;49.15;95924.94;5026053;28;20414;-69
2023/03/18 07:09:32;;;;;;;10.13;5.60;;;;;;;12.18;48.52;95911.69;5026114;28;20180;-69
2023/03/18 07:11:58;;;;;;;9.57;6.90;;;;;;;12.41;48.42;95908.56;5025891;28;20446;-70
2023/03/18 07:14:24;;;;;;;18.10;7.20;;;;;;;12.89;47.44;95918.84;5026045;28;20928;-70
2023/03/18 07:16:49;;;;;;;26.57;8.80;;;;;;;14.09;44.10;95909.53;5025859;28;20464;-69
2023/03/18 07:19:16;;;;;;;28.20;11.00;;;;;;;14.33;43.07;95916.78;5026449;28;20648;-70
2023/03/18 07:21:42;;;;;;;23.20;7.57;;;;;;;14.77;42.04;95916.47;5030147;28;20183;-68
2023/03/18 07:24:08;;;;;;;22.57;8.23;;;;;;;15.16;41.02;95906.72;5029630;28;20517;-69
2023/03/18 07:26:34;;;;;;;16.27;7.43;;;;;;;15.20;41.02;95916.13;5029453;28;20179;-70
2023/03/18 07:29:00;;;;;;;27.03;9.80;;;;;;;15.35;40.77;95922.13;5029897;28;20505;-69
2023/03/18 07:31:26;;;;;;;17.70;9.10;;;;;;;15.68;40.16;95920.69;5029469;28;20674;-69
2023/03/18 07:33:51;;;;;;;22.00;8.70;;;;;;;16.13;39.14;95912.19;5030263;28;20180;-70
2023/03/18 07:36:18;;;;;;;15.00;9.67;;;;;;;16.12;39.20;95910.50;5029182;28;20219;-69
2023/03/18 07:38:43;;;;;;;70.70;11.23;;;;;;;16.16;38.98;95910.16;5029777;28;20267;-69
2023/03/18 07:41:09;;;;;;;13.30;8.30;;;;;;;16.29;38.72;95921.53;5030366;28;20457;-70
2023/03/18 07:43:35;;;;;;;9.07;7.00;;;;;;;16.27;38.45;95914.66;5029657;28;20207;-69
2023/03/18 07:46:01;;;;;;;13.70;6.93;;;;;;;16.47;38.17;95919.31;5029234;28;20213;-68
2023/03/18 07:48:27;;;;;;;21.07;8.50;;;;;;;16.61;38.14;95920.94;5029487;28;20422;-69
2023/03/18 07:50:52;;;;;;;44.40;12.93;;;;;;;16.43;38.37;95917.84;5029450;28;20573;-68
2023/03/18 07:53:17;;;;;;;22.60;9.20;;;;;;;16.52;37.80;95918.97;5029275;28;20175;-70
2023/03/18 07:55:43;;;;;;;16.37;8.23;;;;;;;16.61;37.74;95917.44;5029315;28;20577;-69
2023/03/18 07:58:09;;;;;;;12.80;7.43;;;;;;;16.81;37.51;95924.72;5029485;28;20185;-68
2023/03/18 08:00:34;;;;;;;12.93;8.10;;;;;;;17.16;37.07;95920.34;5029352;28;20201;-70
2023/03/18 08:03:00;;;;;;;10.00;6.87;;;;;;;17.49;36.45;95912.38;5029087;28;20171;-70
2023/03/18 08:05:26;;;;;;;12.40;8.27;;;;;;;17.83;35.61;95907.03;5029215;28;20187;-70
2023/03/18 08:07:52;;;;;;;9.87;6.90;;;;;;;17.96;35.37;95909.56;5028939;28;20183;-70
2023/03/18 08:10:18;;;;;;;13.47;7.90;;;;;;;18.41;34.72;95907.59;5029049;28;20187;-70
2023/03/18 08:12:43;;;;;;;20.33;7.77;;;;;;;18.71;33.95;95913.09;5029103;28;20430;-69
2023/03/18 08:15:10;;;;;;;9.70;6.63;;;;;;;18.72;34.04;95905.00;5029024;28;20235;-70
2023/03/18 08:17:36;;;;;;;7.60;6.50;;;;;;;18.69;34.24;95909.75;5028925;28;20171;-70
2023/03/18 08:20:02;;;;;;;8.70;6.50;;;;;;;18.93;33.54;95907.69;5027427;28;20418;-70
2023/03/18 08:22:28;;;;;;;8.73;7.03;;;;;;;19.15;32.94;95908.53;5029055;28;20406;-69
2023/03/18 08:24:54;;;;;;;7.60;6.90;;;;;;;19.45;32.35;95916.50;5028865;28;20466;-69
2023/03/18 08:27:19;;;;;;;8.10;7.30;;;;;;;19.44;31.98;95913.97;5028406;28;20175;-70
2023/03/18 08:29:45;;;;;;;18.47;7.97;;;;;;;19.43;32.07;95921.09;5028575;28;20251;-69
2023/03/18 08:32:11;;;;;;;15.87;7.77;;;;;;;19.64;31.59;95913.06;5029300;28;20262;-69
2023/03/18 08:34:37;;;;;;;10.37;6.73;;;;;;;19.84;31.30;95913.16;5027200;28;20278;-70
2023/03/18 08:37:03;;;;;;;16.47;7.60;;;;;;;19.70;30.98;95917.06;5028538;28;20175;-70
2023/03/18 08:39:29;;;;;;;9.20;7.10;;;;;;;19.55;31.76;95913.88;5028729;28;20172;-70
2023/03/18 08:41:54;;;;;;;19.93;9.40;;;;;;;19.76;31.46;95910.34;5028828;28;20938;-70
2023/03/18 08:44:20;;;;;;;17.07;8.43;;;;;;;19.89;31.28;95916.28;5028513;28;20187;-70
2023/03/18 08:46:45;;;;;;;9.73;7.80;;;;;;;20.02;31.24;95911.50;5027911;28;20646;-69
2023/03/18 08:49:12;;;;;;;43.90;12.60;;;;;;;20.19;30.91;95904.66;5028411;28;20257;-69
2023/03/18 08:51:38;;;;;;;20.93;8.10;;;;;;;20.06;30.74;95912.94;5028169;28;20206;-69
2023/03/18 08:54:04;;;;;;;19.43;8.60;;;;;;;20.28;30.45;95913.66;5027975;28;21034;-70
2023/03/18 08:56:30;;;;;;;24.20;8.40;;;;;;;20.39;30.06;95910.88;5027439;28;20211;-69
2023/03/18 08:58:55;;;;;;;13.07;7.80;;;;;;;20.51;30.20;95904.41;5028399;28;20418;-69
2023/03/18 09:01:21;;;;;;;10.00;8.23;;;;;;;20.65;29.96;95902.34;5028158;28;20171;-69
2023/03/18 09:03:47;;;;;;;10.47;7.43;;;;;;;20.72;29.90;95906.13;5028204;28;20183;-69
2023/03/18 09:06:13;;;;;;;8.80;7.07;;;;;;;20.57;29.87;95904.84;5027611;28;20214;-69
2023/03/18 09:08:39;;;;;;;10.17;8.20;;;;;;;20.49;30.20;95908.19;5027654;28;20858;-69
2023/03/18 09:11:06;;;;;;;13.93;7.87;;;;;;;20.76;29.91;95910.16;5027984;28;20175;-69
2023/03/18 09:13:32;;;;;;;13.50;8.37;;;;;;;20.82;29.65;95903.44;5027822;28;20919;-69
2023/03/18 09:15:58;;;;;;;10.30;7.57;;;;;;;21.00;29.07;95903.53;5027432;28;20485;-69
2023/03/18 09:18:23;;;;;;;10.80;7.73;;;;;;;21.21;29.06;95903.34;5028047;28;20406;-70
2023/03/18 09:20:49;;;;;;;12.03;8.13;;;;;;;21.04;28.69;95902.25;5028805;28;20180;-69
2023/03/18 09:23:17;;;;;;;13.50;7.20;;;;;;;21.03;28.67;95897.94;5031870;28;20171;-70
2023/03/18 09:25:43;;;;;;;10.70;6.97;;;;;;;20.84;28.62;95899.63;5036780;28;20601;-68
2023/03/18 09:28:09;;;;;;;21.77;7.20;;;;;;;20.96;27.97;95894.16;5035912;28;20414;-69
2023/03/18 09:30:34;;;;;;;21.83;7.50;;;;;;;20.86;28.36;95896.84;5035012;28;20440;-69
2023/03/18 09:33:00;;;;;;;7.40;5.27;;;;;;;20.86;28.33;95895.00;5033674;28;20235;-69
2023/03/18 09:35:27;;;;;;;12.40;6.13;;;;;;;20.46;28.65;95893.34;5042094;28;20287;-69
2023/03/18 09:37:54;;;;;;;24.93;7.30;;;;;;;20.82;28.24;95892.78;5036767;28;20184;-70
2023/03/18 09:40:32;;;;;;;32.50;8.50;;;;;;;21.01;27.23;95897.22;5028179;28;20482;-71
2023/03/18 09:43:04;;;;;;;33.53;7.63;;;;;;;21.18;26.50;95888.47;5027263;28;20422;-70
2023/03/18 09:45:37;;;;;;;11.33;3.93;;;;;;;21.30;26.27;95883.78;5027451;28;20520;-70
2023/03/18 09:48:28;;;;;;;8.97;4.00;;;;;;;21.28;26.48;95886.63;5027479;28;20778;-70
2023/03/18 09:51:40;;;;;;;7.67;4.20;;;;;;;21.07;26.37;95880.63;5027744;28;20566;-70
2023/03/18 09:54:39;;;;;;;17.50;4.63;;;;;;;21.24;26.05;95879.88;5010007;28;20513;-69
2023/03/18 09:57:17;;;;;;;22.03;5.27;;;;;;;21.23;26.17;95875.50;5024934;28;20504;-70
2023/03/18 10:00:16;;;;;;;12.27;4.90;;;;;;;21.23;25.52;95872.00;5027574;28;20426;-71
2023/03/18 10:02:50;;;;;;;16.57;5.20;;;;;;;21.07;25.80;95867.28;5027084;28;20510;-70
2023/03/18 10:05:22;;;;;;;12.33;5.47;;;;;;;21.10;26.51;95865.19;5029011;28;20433;-69
2023/03/18 10:07:53;;;;;;;5.77;3.93;;;;;;;21.13;26.20;95856.03;5028147;28;20414;-70
2023/03/18 10:10:26;;;;;;;7.50;3.90;;;;;;;21.29;26.06;95864.28;5026960;28;20414;-68
2023/03/18 10:13:12;;;;;;;6.33;3.90;;;;;;;21.39;26.01;95861.56;5028226;28;20411;-70
2023/03/18 10:15:44;;;;;;;14.40;4.73;;;;;;;21.25;26.21;95865.53;5028156;28;20462;-70
2023/03/18 10:18:28;;;;;;;18.13;4.43;;;;;;;21.42;25.09;95873.78;5028186;28;20398;-70
2023/03/18 10:21:06;;;;;;;17.93;4.90;;;;;;;21.42;25.26;95863.94;5028201;28;20476;-70
2023/03/18 10:23:34;;;;;;;11.70;4.30;;;;;;;21.43;24.01;95864.81;5027223;28;20485;-70
2023/03/18 10:26:23;;;;;;;24.73;5.73;;;;;;;21.45;24.05;95855.66;5026826;28;20438;-70
2023/03/18 10:29:07;;;;;;;11.90;4.03;;;;;;;21.51;23.62;95857.72;5027364;28;20398;-69
2023/03/18 10:31:45;;;;;;;18.33;4.70;;;;;;;21.51;22.72;95846.22;5027560;28;20506;-69
2023/03/18 10:34:32;;;;;;;10.77;3.83;;;;;;;21.13;23.14;95848.03;5027271;28;20398;-69
2023/03/18 10:37:18;;;;;;;21.33;5.20;;;;;;;21.06;23.70;95849.59;5027296;28;20449;-69
2023/03/18 10:39:45;;;;;;;7.40;3.13;;;;;;;21.13;23.55;95851.53;5027552;28;20541;-69
2023/03/18 10:42:30;;;;;;;5.23;3.87;;;;;;;21.11;23.24;95844.66;5027756;28;20421;-69
2023/03/18 10:45:07;;;;;;;7.90;3.70;;;;;;;21.23;22.60;95851.50;5026986;28;20446;-70
2023/03/18 10:47:39;;;;;;;20.37;4.70;;;;;;;21.06;23.38;95839.78;5026823;28;20413;-70
2023/03/18 10:50:21;;;;;;;5.20;2.93;;;;;;;20.97;23.25;95845.97;5026649;28;20821;-69
2023/03/18 10:53:03;;;;;;;7.27;3.20;;;;;;;21.06;23.37;95844.28;5026586;28;20409;-68
2023/03/18 10:55:36;;;;;;;24.37;4.80;;;;;;;21.08;22.75;95831.63;5028843;28;20461;-70
2023/03/18 10:58:14;;;;;;;6.43;2.90;;;;;;;20.79;21.50;95827.22;5030678;28;20454;-70
2023/03/18 11:00:39;;;;;;;7.53;2.73;;;;;;;20.95;21.77;95829.28;5030751;28;20999;-69
2023/03/18 11:03:06;;;;;;;8.50;2.33;;;;;;;20.86;21.54;95830.16;5030482;28;20406;-68
2023/03/18 11:05:34;;;;;;;7.43;2.90;;;;;;;20.82;21.87;95824.25;5030400;28;20218;-69
2023/03/18 11:08:07;;;;;;;3.87;2.23;;;;;;;20.96;20.83;95820.28;5030260;28;20947;-70
2023/03/18 11:10:42;;;;;;;4.77;2.27;;;;;;;21.09;21.06;95820.78;5030964;28;20426;-69
2023/03/18 11:13:15;;;;;;;10.97;2.87;;;;;;;21.06;20.79;95823.75;5030893;28;20410;-70
2023/03/18 11:15:55;;;;;;;6.77;3.00;;;;;;;20.93;20.66;95818.75;5030909;28;20470;-68
2023/03/18 11:18:23;;;;;;;5.67;2.30;;;;;;;21.27;20.45;95810.19;5030571;28;20406;-68
2023/03/18 11:21:03;;;;;;;6.80;1.70;;;;;;;21.40;20.34;95812.53;5030684;28;20455;-69
2023/03/18 11:23:47;;;;;;;6.60;2.40;;;;;;;21.42;20.00;95815.91;5030161;28;20414;-69
2023/03/18 11:26:29;;;;;;;9.03;2.20;;;;;;;21.38;19.78;95805.63;5029993;28;20461;-71
2023/03/18 11:29:03;;;;;;;6.83;1.67;;;;;;;21.14;20.18;95807.88;5030232;28;20418;-68
2023/03/18 11:31:29;;;;;;;4.30;2.43;;;;;;;21.26;20.46;95811.19;5030263;28;20413;-69
2023/03/18 11:33:57;;;;;;;5.83;1.87;;;;;;;21.29;20.54;95808.22;5030188;28;20493;-70
2023/03/18 11:36:25;;;;;;;6.20;2.37;;;;;;;20.93;20.67;95808.09;5029853;28;20207;-70